Flight Track Log - Related Links

Times and Time Zones

All times are in EDT time to prevent confusion due to time zone crossing. See the THY2833 flight status page for this flight to view local times or setup timezone preferences in your user account.


Time Position Orientation Groundspeed Altitude Reporting Facility
EDT Latitude Longitude Course Direction KTS MPH feet Rate Location/Type
Tue 11:10:00 AM 41.0607 38.0835 273° West  Level Estimated
Tue 11:11:00 AM 41.0650 37.9412 272° West  Level Estimated
Tue 11:12:00 AM 41.0692 37.7989 272° West  Level Estimated
Tue 11:13:00 AM 41.0732 37.6565 272° West  Level Estimated
Tue 11:14:00 AM 41.0770 37.5141 272° West  Level Estimated
Tue 11:15:00 AM 41.0806 37.3717 272° West  Level Estimated
Tue 11:16:00 AM 41.0841 37.2293 272° West  Level Estimated
Tue 11:17:00 AM 41.0873 37.0869 272° West  Level Estimated
Tue 11:18:00 AM 41.0905 36.9444 272° West  Level Estimated
Tue 11:19:00 AM 41.0934 36.8020 272° West  Level Estimated
Tue 11:20:00 AM 41.0961 36.6595 272° West  Level Estimated
Tue 11:21:00 AM 41.0987 36.5170 271° West  Level Estimated
Tue 11:22:00 AM 41.1011 36.3745 271° West  Level Estimated
Tue 11:23:00 AM 41.1033 36.2321 271° West  Level Estimated
Tue 11:24:00 AM 41.1054 36.0896 271° West  Level Estimated
Tue 11:25:00 AM 41.1073 35.9470 271° West  Level Estimated
Tue 11:26:00 AM 41.1090 35.8045 271° West  Level Estimated
Tue 11:27:00 AM 41.1105 35.6620 271° West  Level Estimated
Tue 11:28:00 AM 41.1118 35.5195 271° West  Level Estimated
Tue 11:29:00 AM 41.1130 35.3769 271° West  Level Estimated
Tue 11:30:00 AM 41.1140 35.2344 271° West  Level Estimated
Tue 11:31:00 AM 41.1148 35.0918 270° West  Level Estimated
Tue 11:32:00 AM 41.1155 34.9493 270° West  Level Estimated
Tue 11:33:00 AM 41.1159 34.8067 270° West  Level Estimated
Tue 11:34:00 AM 41.1162 34.6642 270° West  Level Estimated
Tue 11:35:00 AM 41.1163 34.5216 270° West  Level Estimated
Tue 11:36:00 AM 41.1163 34.3790 270° West  Level Estimated
Tue 11:37:00 AM 41.1161 34.2365 270° West  Level Estimated
Tue 11:38:00 AM 41.1157 34.0939 270° West  Level Estimated
Tue 11:39:00 AM 41.1151 33.9514 270° West  Level Estimated
Tue 11:40:00 AM 41.1143 33.8088 270° West  Level Estimated
Tue 11:41:00 AM 41.1134 33.6663 270° West  Level Estimated
Tue 11:42:00 AM 41.1123 33.5237 269° West  Level Estimated
Tue 11:43:00 AM 41.1110 33.3812 269° West  Level Estimated
Tue 11:44:00 AM 41.1095 33.2387 269° West  Level Estimated
Tue 11:45:00 AM 41.1079 33.0961 269° West  Level Estimated
Tue 11:46:00 AM 41.1060 32.9536 269° West  Level Estimated
Tue 11:47:00 AM 41.1041 32.8111 269° West  Level Estimated
Tue 11:48:00 AM 41.1019 32.6686 269° West  Level Estimated
Tue 11:49:00 AM 41.0996 32.5261 269° West  Level Estimated
Tue 11:50:00 AM 41.0970 32.3836 269° West  Level Estimated
Tue 11:51:00 AM 41.0943 32.2412 269° West  Level Estimated
Tue 11:52:00 AM 41.0915 32.0987 269° West  Level Estimated
Tue 11:53:00 AM 41.0884 31.9563 268° West  Level Estimated
Tue 11:54:00 AM 41.0852 31.8138 268° West  Level Estimated
Tue 11:55:00 AM 41.0818 31.6714 268° West  Level Estimated
Tue 11:56:00 AM 41.0783 31.5290 268° West  Level Estimated
Tue 11:57:00 AM 41.0745 31.3866 268° West  Level Estimated
Tue 11:58:00 AM 41.0706 31.2443 268° West  Level Estimated
Tue 11:59:00 AM 41.0665 31.1019 268° West  Level Estimated
Tue 12:00:00 PM 41.0622 30.9596 268° West  Level Estimated
Tue 12:01:00 PM 41.0578 30.8173 268° West  Level Estimated
Tue 12:02:00 PM 41.0532 30.6750 268° West  Level Estimated
Tue 12:03:00 PM 41.0484 30.5327 267° West  Level Estimated
Tue 12:04:00 PM 41.0434 30.3904 267° West  Level Estimated
Tue 12:05:00 PM 41.0382 30.2482 267° West  Level Estimated
Tue 12:06:00 PM 41.0329 30.1060 267° West  Level Estimated
Tue 12:07:00 PM 41.0274 29.9638 267° West  Level Estimated
Tue 12:08:00 PM 41.0218 29.8217 267° West  Level Estimated
Tue 12:09:00 PM 41.0159 29.6795 267° West  Level Estimated
Tue 12:10:00 PM 41.0099 29.5374 267° West  Level Estimated
Tue 12:11:00 PM 41.0037 29.3953 267° West  Level Estimated
Tue 12:12:00 PM 40.9973 29.2533 267° West  Level Estimated
Tue 12:13:00 PM 40.9908 29.1112 267° West  Level Estimated
Tue 12:14:00 PM 40.9841 28.9692 266° West  Level Estimated
Tue 12:15:00 PM 40.9772 28.8273 266° West  Level Estimated
Tue 12:16:00 PM 40.9769 28.8211 266° West  Level Estimated
Tue 12:17:00 PM 40.9769 28.8211 North  Level Estimated
Tue 12:18:00 PM 40.9769 28.8211 North  Level Estimated
Tue 12:19:00 PM 40.9769 28.8211 North  Level Estimated
Tue 12:20:00 PM 40.9769 28.8211 North  Level Estimated
Tue 12:21:00 PM 40.9769 28.8211 North  Level Estimated
Tue 12:22:00 PM 40.9769 28.8211 North  Level Estimated

Login

Don't have an account? Register now (free) for customized features, flight alerts, and more!